Time;durP1;ratioP1;P1;durP2;ratioP2;P2;SDS_P1;SDS_P2;PMS_P1;PMS_P2;Temp;Humidity;BMP_temperature;BMP_pressure;BME280_temperature;BME280_humidity;BME280_pressure;Samples;Min_cycle;Max_cycle;Signal;HPM_P1;HPM_P2
2022/07/10 00:00:28;;;;;;;;;;;;;;;;;;5011058;28;45845;-77
2022/07/10 00:02:54;;;;;;;;;;;;;;;;;;5013646;28;49115;-78
2022/07/10 00:05:21;;;;;;;;;;;;;;;;;;5009022;28;42547;-78
2022/07/10 00:07:47;;;;;;;;;;;;;;;;;;4995070;28;47611;-77
2022/07/10 00:10:13;;;;;;;;;;;;;;;;;;5014638;28;45848;-78
2022/07/10 00:12:40;;;;;;;;;;;;;;;;;;5015734;28;47508;-78
2022/07/10 00:15:06;;;;;;;;;;;;;;;;;;5011702;28;48520;-78
2022/07/10 00:17:32;;;;;;;;;;;;;;;;;;5012028;28;44987;-78
2022/07/10 00:19:58;;;;;;;;;;;;;;;;;;5015842;28;46322;-78
2022/07/10 00:22:25;;;;;;;;;;;;;;;;;;5014823;28;44685;-78
2022/07/10 00:24:51;;;;;;;;;;;;;;;;;;5012090;28;43736;-77
2022/07/10 00:27:17;;;;;;;;;;;;;;;;;;5006493;28;46172;-78
2022/07/10 00:29:44;;;;;;;;;;;;;;;;;;5014398;28;48362;-78
2022/07/10 00:32:10;;;;;;;;;;;;;;;;;;5013535;28;42082;-77
2022/07/10 00:34:36;;;;;;;;;;;;;;;;;;4994996;28;48809;-78
2022/07/10 00:37:02;;;;;;;;;;;;;;;;;;5009536;28;45650;-78
2022/07/10 00:39:29;;;;;;;;;;;;;;;;;;5012524;28;46479;-78
2022/07/10 00:41:55;;;;;;;;;;;;;;;;;;5014010;28;48025;-78
2022/07/10 00:44:21;;;;;;;;;;;;;;;;;;5009879;28;43743;-78
2022/07/10 00:46:48;;;;;;;;;;;;;;;;;;5007791;28;46480;-78
2022/07/10 00:49:14;;;;;;;;;;;;;;;;;;5005858;28;46938;-78
2022/07/10 00:51:40;;;;;;;;;;;;;;;;;;5008665;28;46773;-78
2022/07/10 00:54:06;;;;;;;;;;;;;;;;;;5010111;28;47368;-78
2022/07/10 00:56:33;;;;;;;;;;;;;;;;;;5003621;28;44102;-78
2022/07/10 00:59:00;;;;;;;;;;;;;;;;;;5007528;28;46073;-78
2022/07/10 01:01:26;;;;;;;;;;;;;;;;;;4995394;28;46940;-78
2022/07/10 01:03:52;;;;;;;;;;;;;;;;;;5005927;28;44687;-78
2022/07/10 01:06:19;;;;;;;;;;;;;;;;;;5008128;28;46621;-78
2022/07/10 01:08:45;;;;;;;;;;;;;;;;;;5007369;28;48479;-78
2022/07/10 01:11:11;;;;;;;;;;;;;;;;;;5005947;28;44454;-78
2022/07/10 01:13:37;;;;;;;;;;;;;;;;;;5008556;28;44527;-78
2022/07/10 01:16:04;;;;;;;;;;;;;;;;;;5005154;28;32764;-78
2022/07/10 01:18:30;;;;;;;;;;;;;;;;;;4983239;28;43440;-78
2022/07/10 01:20:56;;;;;;;;;;;;;;;;;;4987203;28;46897;-78
2022/07/10 01:23:23;;;;;;;;;;;;;;;;;;4997890;28;43627;-78
2022/07/10 01:25:49;;;;;;;;;;;;;;;;;;5008769;28;47665;-78
2022/07/10 01:28:15;;;;;;;;;;;;;;;;;;4991808;28;46869;-78
2022/07/10 01:30:42;;;;;;;;;;;;;;;;;;5009087;28;41054;-78
2022/07/10 01:33:08;;;;;;;;;;;;;;;;;;5008119;28;46773;-78
2022/07/10 01:35:34;;;;;;;;;;;;;;;;;;4994256;28;45464;-78
2022/07/10 01:38:01;;;;;;;;;;;;;;;;;;5000842;28;47843;-78
2022/07/10 01:40:27;;;;;;;;;;;;;;;;;;5009798;28;48100;-78
2022/07/10 01:42:53;;;;;;;;;;;;;;;;;;5009920;28;46564;-78
2022/07/10 01:45:20;;;;;;;;;;;;;;;;;;5009738;28;46469;-78
2022/07/10 01:47:46;;;;;;;;;;;;;;;;;;5005216;28;48177;-78
2022/07/10 01:50:12;;;;;;;;;;;;;;;;;;5010934;28;46420;-78
2022/07/10 01:52:38;;;;;;;;;;;;;;;;;;5010094;28;46579;-78
2022/07/10 01:55:05;;;;;;;;;;;;;;;;;;5011463;28;47221;-78
2022/07/10 01:57:31;;;;;;;;;;;;;;;;;;5010671;28;42105;-78
2022/07/10 01:59:57;;;;;;;;;;;;;;;;;;5010205;28;49281;-78
2022/07/10 02:02:24;;;;;;;;;;;;;;;;;;5006601;28;45252;-78
2022/07/10 02:04:50;;;;;;;;;;;;;;;;;;5009399;28;45477;-78
2022/07/10 02:07:17;;;;;;;;;;;;;;;;;;5009611;28;46881;-78
2022/07/10 02:09:43;;;;;;;;;;;;;;;;;;4993729;28;42288;-78
2022/07/10 02:12:09;;;;;;;;;;;;;;;;;;5005071;28;46998;-78
2022/07/10 02:14:36;;;;;;;;;;;;;;;;;;5010725;28;46729;-78
2022/07/10 02:17:02;;;;;;;;;;;;;;;;;;5007174;28;40999;-78
2022/07/10 02:19:28;;;;;;;;;;;;;;;;;;5009564;28;44566;-78
2022/07/10 02:21:55;;;;;;;;;;;;;;;;;;5011431;28;44965;-78
2022/07/10 02:24:21;;;;;;;;;;;;;;;;;;5013890;28;47850;-78
2022/07/10 02:26:47;;;;;;;;;;;;;;;;;;4996245;28;46309;-78
2022/07/10 02:29:14;;;;;;;;;;;;;;;;;;5014139;28;45837;-78
2022/07/10 02:31:40;;;;;;;;;;;;;;;;;;5013171;28;46433;-78
2022/07/10 02:34:07;;;;;;;;;;;;;;;;;;4996431;28;50203;-78
2022/07/10 02:36:33;;;;;;;;;;;;;;;;;;5014008;28;44770;-78
2022/07/10 02:38:59;;;;;;;;;;;;;;;;;;5014296;28;46646;-78
2022/07/10 02:41:25;;;;;;;;;;;;;;;;;;5014925;28;46907;-79
2022/07/10 02:43:52;;;;;;;;;;;;;;;;;;5013702;28;46465;-78
2022/07/10 02:46:18;;;;;;;;;;;;;;;;;;5012136;28;46977;-78
2022/07/10 02:48:44;;;;;;;;;;;;;;;;;;5013082;28;43468;-78
2022/07/10 02:51:10;;;;;;;;;;;;;;;;;;5015787;28;44728;-78
2022/07/10 02:53:37;;;;;;;;;;;;;;;;;;5016190;28;46020;-78
2022/07/10 02:56:03;;;;;;;;;;;;;;;;;;5013600;28;44331;-78
2022/07/10 02:58:29;;;;;;;;;;;;;;;;;;5010189;28;47522;-78
2022/07/10 03:00:55;;;;;;;;;;;;;;;;;;5006981;28;46436;-79
2022/07/10 03:03:22;;;;;;;;;;;;;;;;;;5018053;28;43715;-78
2022/07/10 03:05:48;;;;;;;;;;;;;;;;;;5020093;28;46233;-78
2022/07/10 03:08:15;;;;;;;;;;;;;;;;;;5018601;28;44838;-78
2022/07/10 03:10:41;;;;;;;;;;;;;;;;;;5013888;28;44800;-79
2022/07/10 03:13:07;;;;;;;;;;;;;;;;;;5015091;28;46991;-78
2022/07/10 03:15:33;;;;;;;;;;;;;;;;;;5011645;28;42204;-78
2022/07/10 03:18:00;;;;;;;;;;;;;;;;;;5000664;28;46535;-79
2022/07/10 03:20:26;;;;;;;;;;;;;;;;;;5015061;28;44763;-78
2022/07/10 03:22:52;;;;;;;;;;;;;;;;;;5016202;28;45845;-78
2022/07/10 03:25:18;;;;;;;;;;;;;;;;;;5012843;28;45189;-78
2022/07/10 03:27:45;;;;;;;;;;;;;;;;;;5010622;28;43544;-78
2022/07/10 03:30:11;;;;;;;;;;;;;;;;;;5014091;28;44971;-78
2022/07/10 03:32:37;;;;;;;;;;;;;;;;;;5017358;28;47016;-79
2022/07/10 03:35:04;;;;;;;;;;;;;;;;;;4995717;28;43744;-78
2022/07/10 03:37:30;;;;;;;;;;;;;;;;;;4998812;28;47770;-78
2022/07/10 03:39:56;;;;;;;;;;;;;;;;;;5013879;28;45213;-78
2022/07/10 03:42:23;;;;;;;;;;;;;;;;;;5012794;28;42856;-78
2022/07/10 03:44:49;;;;;;;;;;;;;;;;;;5014054;28;46237;-78
2022/07/10 03:47:16;;;;;;;;;;;;;;;;;;5001618;28;42765;-78
2022/07/10 03:49:42;;;;;;;;;;;;;;;;;;5016704;28;49428;-78
2022/07/10 03:52:08;;;;;;;;;;;;;;;;;;5015832;28;46681;-79
2022/07/10 03:54:35;;;;;;;;;;;;;;;;;;5012011;28;46916;-78
2022/07/10 03:59:46;;;;;;;;;;;;;;;;;;5004309;28;48152;-78
2022/07/10 04:02:12;;;;;;;;;;;;;;;;;;5015596;28;41965;-78
2022/07/10 04:04:39;;;;;;;;;;;;;;;;;;4997566;28;46295;-78
2022/07/10 04:07:05;;;;;;;;;;;;;;;;;;5010385;28;45489;-79
2022/07/10 04:09:32;;;;;;;;;;;;;;;;;;5009062;28;46693;-78
2022/07/10 04:11:58;;;;;;;;;;;;;;;;;;5013282;28;45603;-79
2022/07/10 04:14:24;;;;;;;;;;;;;;;;;;5012666;28;43744;-78
2022/07/10 04:16:50;;;;;;;;;;;;;;;;;;5015226;28;48005;-78
2022/07/10 04:19:18;;;;;;;;;;;;;;;;;;5013608;28;47030;-79
2022/07/10 04:21:44;;;;;;;;;;;;;;;;;;5012575;28;43647;-78
2022/07/10 04:24:10;;;;;;;;;;;;;;;;;;5010136;28;47512;-78
2022/07/10 04:26:36;;;;;;;;;;;;;;;;;;5014025;28;47345;-78
2022/07/10 04:29:03;;;;;;;;;;;;;;;;;;4997233;28;43790;-79
2022/07/10 04:31:29;;;;;;;;;;;;;;;;;;4996085;28;47238;-79
2022/07/10 04:33:57;;;;;;;;;;;;;;;;;;5014148;28;43506;-78
2022/07/10 04:36:23;;;;;;;;;;;;;;;;;;5014786;28;45738;-79
2022/07/10 04:38:49;;;;;;;;;;;;;;;;;;5013781;28;45804;-78
2022/07/10 04:41:16;;;;;;;;;;;;;;;;;;5016487;28;43854;-78
2022/07/10 04:43:42;;;;;;;;;;;;;;;;;;5011101;28;46325;-78
2022/07/10 04:46:08;;;;;;;;;;;;;;;;;;5013184;28;48276;-78
2022/07/10 04:48:35;;;;;;;;;;;;;;;;;;5015341;28;43910;-78
2022/07/10 04:51:01;;;;;;;;;;;;;;;;;;5013712;28;46685;-78
2022/07/10 04:53:28;;;;;;;;;;;;;;;;;;5013757;28;43622;-78
2022/07/10 04:55:54;;;;;;;;;;;;;;;;;;5014077;28;46702;-78
2022/07/10 04:58:20;;;;;;;;;;;;;;;;;;5012732;28;46902;-78
2022/07/10 05:00:46;;;;;;;;;;;;;;;;;;4997946;28;41814;-78
2022/07/10 05:03:15;;;;;;;;;;;;;;;;;;5010167;28;47928;-79
2022/07/10 05:05:42;;;;;;;;;;;;;;;;;;5013446;28;48110;-78
2022/07/10 05:08:08;;;;;;;;;;;;;;;;;;5013640;28;44895;-78
2022/07/10 05:10:34;;;;;;;;;;;;;;;;;;5015437;28;44504;-78
2022/07/10 05:13:01;;;;;;;;;;;;;;;;;;5011334;28;46986;-78
2022/07/10 05:15:27;;;;;;;;;;;;;;;;;;5005777;28;46473;-78
2022/07/10 05:17:53;;;;;;;;;;;;;;;;;;5011651;28;45564;-78
2022/07/10 05:20:20;;;;;;;;;;;;;;;;;;5014379;28;47328;-78
2022/07/10 05:22:46;;;;;;;;;;;;;;;;;;5013445;28;44754;-78
2022/07/10 05:25:12;;;;;;;;;;;;;;;;;;5014426;28;45799;-78
2022/07/10 05:27:39;;;;;;;;;;;;;;;;;;5014397;28;43680;-78
2022/07/10 05:30:05;;;;;;;;;;;;;;;;;;4999627;28;45380;-78
2022/07/10 05:32:31;;;;;;;;;;;;;;;;;;5016117;28;48684;-78
2022/07/10 05:34:58;;;;;;;;;;;;;;;;;;5014564;28;46320;-79
2022/07/10 05:37:24;;;;;;;;;;;;;;;;;;5014830;28;45959;-78
2022/07/10 05:39:51;;;;;;;;;;;;;;;;;;5015913;28;42296;-78
2022/07/10 05:42:17;;;;;;;;;;;;;;;;;;5012391;28;47275;-78
2022/07/10 05:44:43;;;;;;;;;;;;;;;;;;4995370;28;48239;-78
2022/07/10 05:47:10;;;;;;;;;;;;;;;;;;5011171;28;44844;-78
2022/07/10 05:49:36;;;;;;;;;;;;;;;;;;5005187;28;47532;-78
2022/07/10 05:52:02;;;;;;;;;;;;;;;;;;4995377;28;46294;-79
2022/07/10 05:54:29;;;;;;;;;;;;;;;;;;5009314;28;40635;-78
2022/07/10 05:56:55;;;;;;;;;;;;;;;;;;4997345;28;49958;-78
2022/07/10 05:59:21;;;;;;;;;;;;;;;;;;4999506;28;43777;-78
2022/07/10 06:01:48;;;;;;;;;;;;;;;;;;5009534;28;46244;-78
2022/07/10 06:04:14;;;;;;;;;;;;;;;;;;5012427;28;46988;-78
2022/07/10 06:06:40;;;;;;;;;;;;;;;;;;5015115;28;45293;-78
2022/07/10 06:09:06;;;;;;;;;;;;;;;;;;5011799;28;46416;-79
2022/07/10 06:11:33;;;;;;;;;;;;;;;;;;4998103;28;48515;-78
2022/07/10 06:14:00;;;;;;;;;;;;;;;;;;5013177;28;42906;-78
2022/07/10 06:16:26;;;;;;;;;;;;;;;;;;4996125;28;46648;-78
2022/07/10 06:18:53;;;;;;;;;;;;;;;;;;5010320;28;43488;-78
2022/07/10 06:21:21;;;;;;;;;;;;;;;;;;5013051;28;46358;-79
2022/07/10 06:23:48;;;;;;;;;;;;;;;;;;5002315;28;49654;-78
2022/07/10 06:26:14;;;;;;;;;;;;;;;;;;4993184;28;42235;-78
2022/07/10 06:28:40;;;;;;;;;;;;;;;;;;5011200;28;47560;-78
2022/07/10 06:31:07;;;;;;;;;;;;;;;;;;5010536;28;47592;-78
2022/07/10 06:33:35;;;;;;;;;;;;;;;;;;5014886;28;43313;-78
2022/07/10 06:36:01;;;;;;;;;;;;;;;;;;5014383;28;44732;-78
2022/07/10 06:38:27;;;;;;;;;;;;;;;;;;5014977;28;47010;-78
2022/07/10 06:40:54;;;;;;;;;;;;;;;;;;5016237;28;46453;-79
2022/07/10 06:43:20;;;;;;;;;;;;;;;;;;5012349;28;50069;-78
2022/07/10 06:45:46;;;;;;;;;;;;;;;;;;5009277;28;44763;-78
2022/07/10 06:48:12;;;;;;;;;;;;;;;;;;5010650;28;49051;-78
2022/07/10 06:50:39;;;;;;;;;;;;;;;;;;5013933;28;49322;-78
2022/07/10 06:53:05;;;;;;;;;;;;;;;;;;5009795;28;43754;-79
2022/07/10 06:55:32;;;;;;;;;;;;;;;;;;5012172;28;48343;-78
2022/07/10 06:57:58;;;;;;;;;;;;;;;;;;5012228;28;45320;-78
2022/07/10 07:00:24;;;;;;;;;;;;;;;;;;5011878;28;44211;-79
2022/07/10 07:02:51;;;;;;;;;;;;;;;;;;5009914;28;46876;-79
2022/07/10 07:05:17;;;;;;;;;;;;;;;;;;5014205;28;42762;-79
2022/07/10 07:07:43;;;;;;;;;;;;;;;;;;5008151;28;44620;-79
2022/07/10 07:10:10;;;;;;;;;;;;;;;;;;5009426;28;48282;-78
2022/07/10 07:12:36;;;;;;;;;;;;;;;;;;5012746;28;42989;-78
2022/07/10 07:15:02;;;;;;;;;;;;;;;;;;5013996;28;47551;-80
2022/07/10 07:17:45;;;;;;;;;;;;;;;;;;5017272;28;45758;-80
2022/07/10 07:23:09;;;;;;;;;;;;;;;;;;5016800;28;44712;-79
2022/07/10 07:25:36;;;;;;;;;;;;;;;;;;5018064;28;44746;-79
2022/07/10 07:28:02;;;;;;;;;;;;;;;;;;5017029;28;49412;-79
2022/07/10 07:30:29;;;;;;;;;;;;;;;;;;4998661;28;49608;-79
2022/07/10 07:32:55;;;;;;;;;;;;;;;;;;5015294;28;46311;-79
2022/07/10 07:35:22;;;;;;;;;;;;;;;;;;4998969;28;45052;-79
2022/07/10 07:37:48;;;;;;;;;;;;;;;;;;5015868;28;48855;-79
2022/07/10 07:40:15;;;;;;;;;;;;;;;;;;5010494;28;42350;-79
2022/07/10 07:42:41;;;;;;;;;;;;;;;;;;5014743;28;46242;-79
2022/07/10 07:45:07;;;;;;;;;;;;;;;;;;5009938;28;42095;-79
2022/07/10 07:47:34;;;;;;;;;;;;;;;;;;5014710;28;43204;-79
2022/07/10 07:50:00;;;;;;;;;;;;;;;;;;5015453;28;47874;-78
2022/07/10 07:52:26;;;;;;;;;;;;;;;;;;5004036;28;45298;-78
2022/07/10 07:54:53;;;;;;;;;;;;;;;;;;5030295;28;46046;-78
2022/07/10 07:57:19;;;;;;;;;;;;;;;;;;5021163;28;46792;-78
2022/07/10 07:59:45;;;;;;;;;;;;;;;;;;5013837;28;42175;-78
2022/07/10 08:02:12;;;;;;;;;;;;;;;;;;5009914;28;44996;-78
2022/07/10 08:04:38;;;;;;;;;;;;;;;;;;5007173;28;48202;-78
2022/07/10 08:07:04;;;;;;;;;;;;;;;;;;5011098;28;45694;-78
2022/07/10 08:09:31;;;;;;;;;;;;;;;;;;5006093;28;47220;-79
2022/07/10 08:11:57;;;;;;;;;;;;;;;;;;4993983;28;43021;-78
2022/07/10 08:14:23;;;;;;;;;;;;;;;;;;4995588;28;44642;-79
2022/07/10 08:16:50;;;;;;;;;;;;;;;;;;5013935;28;47052;-79
2022/07/10 08:19:17;;;;;;;;;;;;;;;;;;5010029;28;42262;-79
2022/07/10 08:21:43;;;;;;;;;;;;;;;;;;5013482;28;45458;-78
2022/07/10 08:24:09;;;;;;;;;;;;;;;;;;5013457;28;45363;-79
2022/07/10 08:26:36;;;;;;;;;;;;;;;;;;5013924;28;43348;-78
2022/07/10 08:29:02;;;;;;;;;;;;;;;;;;5011724;28;48078;-79
2022/07/10 08:31:28;;;;;;;;;;;;;;;;;;5015454;28;45099;-79
2022/07/10 08:33:55;;;;;;;;;;;;;;;;;;5014727;28;47308;-79
2022/07/10 08:36:21;;;;;;;;;;;;;;;;;;5016043;28;45743;-79
2022/07/10 08:39:05;;;;;;;;;;;;;;;;;;5007730;28;42394;-78
2022/07/10 08:41:32;;;;;;;;;;;;;;;;;;5013094;28;46162;-78
2022/07/10 08:43:58;;;;;;;;;;;;;;;;;;5015000;28;45646;-78
2022/07/10 08:46:24;;;;;;;;;;;;;;;;;;5015484;28;40817;-78
2022/07/10 08:48:52;;;;;;;;;;;;;;;;;;5013720;28;34521;-78
2022/07/10 08:51:19;;;;;;;;;;;;;;;;;;5015900;28;43295;-79
2022/07/10 08:53:45;;;;;;;;;;;;;;;;;;4998863;28;47761;-79
2022/07/10 08:56:12;;;;;;;;;;;;;;;;;;5008740;28;45149;-79
2022/07/10 08:58:38;;;;;;;;;;;;;;;;;;5003346;28;41148;-78
2022/07/10 09:01:05;;;;;;;;;;;;;;;;;;5003925;28;45396;-79
2022/07/10 09:03:31;;;;;;;;;;;;;;;;;;5012066;28;47278;-79
2022/07/10 09:05:57;;;;;;;;;;;;;;;;;;5021634;28;44336;-79
2022/07/10 09:08:24;;;;;;;;;;;;;;;;;;5013976;28;47503;-78
2022/07/10 09:10:53;;;;;;;;;;;;;;;;;;4995138;28;47007;-79
2022/07/10 09:13:19;;;;;;;;;;;;;;;;;;5001580;28;44333;-79
2022/07/10 09:15:46;;;;;;;;;;;;;;;;;;5014290;28;46701;-79
2022/07/10 09:18:12;;;;;;;;;;;;;;;;;;4991917;28;44855;-82
2022/07/10 09:20:38;;;;;;;;;;;;;;;;;;5006320;28;45022;-78
2022/07/10 09:23:04;;;;;;;;;;;;;;;;;;5014408;28;48218;-78
2022/07/10 09:25:32;;;;;;;;;;;;;;;;;;5014406;28;46576;-79
2022/07/10 09:27:59;;;;;;;;;;;;;;;;;;5013980;28;46242;-80
2022/07/10 09:30:26;;;;;;;;;;;;;;;;;;5011778;28;45142;-80
2022/07/10 09:32:53;;;;;;;;;;;;;;;;;;5010108;28;45561;-80
2022/07/10 09:38:04;;;;;;;;;;;;;;;;;;5011142;28;41978;-80
2022/07/10 09:40:30;;;;;;;;;;;;;;;;;;5015806;28;47479;-81
2022/07/10 09:42:57;;;;;;;;;;;;;;;;;;5014434;28;45312;-80
2022/07/10 09:45:24;;;;;;;;;;;;;;;;;;5018341;28;41540;-81
2022/07/10 09:47:50;;;;;;;;;;;;;;;;;;5016399;28;47760;-81
2022/07/10 09:50:17;;;;;;;;;;;;;;;;;;5017478;28;45850;-81
2022/07/10 09:52:43;;;;;;;;;;;;;;;;;;5014180;28;44669;-81
2022/07/10 09:55:09;;;;;;;;;;;;;;;;;;5020120;28;44498;-81
2022/07/10 09:57:35;;;;;;;;;;;;;;;;;;5017374;28;41621;-81
2022/07/10 10:00:02;;;;;;;;;;;;;;;;;;5016932;28;44490;-81
2022/07/10 10:02:28;;;;;;;;;;;;;;;;;;5003716;28;46433;-81
2022/07/10 10:04:54;;;;;;;;;;;;;;;;;;5008561;28;42487;-80
2022/07/10 10:07:21;;;;;;;;;;;;;;;;;;5019771;28;45767;-81
2022/07/10 10:09:47;;;;;;;;;;;;;;;;;;5018214;28;48328;-81
2022/07/10 10:12:13;;;;;;;;;;;;;;;;;;5018392;28;43416;-81
2022/07/10 10:14:39;;;;;;;;;;;;;;;;;;5012450;28;44352;-81
2022/07/10 10:17:06;;;;;;;;;;;;;;;;;;5000736;28;42074;-81
2022/07/10 10:22:17;;;;;;;;;;;;;;;;;;5013843;28;46968;-82
2022/07/10 10:24:44;;;;;;;;;;;;;;;;;;5016655;28;41689;-81
2022/07/10 10:27:10;;;;;;;;;;;;;;;;;;5013956;28;47530;-81
2022/07/10 10:29:37;;;;;;;;;;;;;;;;;;5017760;28;45947;-80
2022/07/10 10:32:03;;;;;;;;;;;;;;;;;;5016867;28;41849;-81
2022/07/10 10:34:29;;;;;;;;;;;;;;;;;;5016411;28;46055;-81
2022/07/10 10:36:56;;;;;;;;;;;;;;;;;;4996469;28;48244;-82
2022/07/10 10:39:22;;;;;;;;;;;;;;;;;;5009386;28;46375;-81
2022/07/10 10:41:48;;;;;;;;;;;;;;;;;;4997512;28;45897;-81
2022/07/10 10:44:16;;;;;;;;;;;;;;;;;;5016324;28;44045;-81
2022/07/10 10:46:42;;;;;;;;;;;;;;;;;;5018657;28;46122;-81
2022/07/10 10:49:08;;;;;;;;;;;;;;;;;;5017295;28;47400;-81
2022/07/10 10:51:35;;;;;;;;;;;;;;;;;;5019442;28;42194;-81
2022/07/10 10:54:01;;;;;;;;;;;;;;;;;;5019031;28;45920;-81
2022/07/10 10:56:29;;;;;;;;;;;;;;;;;;5019626;28;45531;-81
2022/07/10 10:58:55;;;;;;;;;;;;;;;;;;5002776;28;39729;-81
2022/07/10 11:01:21;;;;;;;;;;;;;;;;;;5007601;28;47378;-81
2022/07/10 11:03:48;;;;;;;;;;;;;;;;;;5020473;28;47340;-81
2022/07/10 11:06:14;;;;;;;;;;;;;;;;;;5004606;28;44858;-81
2022/07/10 11:08:41;;;;;;;;;;;;;;;;;;5016330;28;44912;-81
2022/07/10 11:11:08;;;;;;;;;;;;;;;;;;5019372;28;46874;-80
2022/07/10 11:13:34;;;;;;;;;;;;;;;;;;5014112;28;45045;-81
2022/07/10 11:16:00;;;;;;;;;;;;;;;;;;5018646;28;48549;-82
2022/07/10 11:18:28;;;;;;;;;;;;;;;;;;5000569;28;42507;-82
2022/07/10 11:20:55;;;;;;;;;;;;;;;;;;5018967;28;46288;-82
2022/07/10 11:23:21;;;;;;;;;;;;;;;;;;5004482;28;42382;-82
2022/07/10 11:25:50;;;;;;;;;;;;;;;;;;5019343;28;46282;-81
2022/07/10 11:28:18;;;;;;;;;;;;;;;;;;5021425;28;46210;-80
2022/07/10 11:30:44;;;;;;;;;;;;;;;;;;5017454;28;41971;-81
2022/07/10 11:33:11;;;;;;;;;;;;;;;;;;5018314;28;45403;-82
2022/07/10 11:35:37;;;;;;;;;;;;;;;;;;5017200;28;48319;-81
2022/07/10 11:38:03;;;;;;;;;;;;;;;;;;5020693;28;43520;-81
2022/07/10 11:40:30;;;;;;;;;;;;;;;;;;5021400;28;46510;-80
2022/07/10 11:42:57;;;;;;;;;;;;;;;;;;5019654;28;33265;-81
2022/07/10 11:45:23;;;;;;;;;;;;;;;;;;5019045;28;44756;-82
2022/07/10 11:47:50;;;;;;;;;;;;;;;;;;4998321;28;45808;-80
2022/07/10 11:50:16;;;;;;;;;;;;;;;;;;5013941;28;43984;-80
2022/07/10 11:52:42;;;;;;;;;;;;;;;;;;5013798;28;49142;-80
2022/07/10 11:55:09;;;;;;;;;;;;;;;;;;5016453;28;46929;-79
2022/07/10 11:57:36;;;;;;;;;;;;;;;;;;5013744;28;44806;-80
2022/07/10 12:00:03;;;;;;;;;;;;;;;;;;5016791;28;49168;-79
2022/07/10 12:02:30;;;;;;;;;;;;;;;;;;5021134;28;45099;-79
2022/07/10 12:04:56;;;;;;;;;;;;;;;;;;5020718;28;45621;-80
2022/07/10 12:07:22;;;;;;;;;;;;;;;;;;5015048;28;45012;-80
2022/07/10 12:09:49;;;;;;;;;;;;;;;;;;5028798;28;45130;-80
2022/07/10 12:12:15;;;;;;;;;;;;;;;;;;5019560;28;45597;-80
2022/07/10 12:14:41;;;;;;;;;;;;;;;;;;5017160;28;48423;-80
2022/07/10 12:17:07;;;;;;;;;;;;;;;;;;5019646;28;46806;-80
2022/07/10 12:19:35;;;;;;;;;;;;;;;;;;5016648;28;44136;-80
2022/07/10 12:22:01;;;;;;;;;;;;;;;;;;4993669;28;45813;-80
2022/07/10 12:24:30;;;;;;;;;;;;;;;;;;5018755;28;44161;-80
2022/07/10 12:26:59;;;;;;;;;;;;;;;;;;5018204;28;44568;-80
2022/07/10 12:29:25;;;;;;;;;;;;;;;;;;5017007;28;45205;-80
2022/07/10 12:31:52;;;;;;;;;;;;;;;;;;5017133;28;45171;-80
2022/07/10 12:34:18;;;;;;;;;;;;;;;;;;5018009;28;48001;-80
2022/07/10 12:36:44;;;;;;;;;;;;;;;;;;5017249;28;45028;-79
2022/07/10 12:39:11;;;;;;;;;;;;;;;;;;5014294;28;46434;-80
2022/07/10 12:41:37;;;;;;;;;;;;;;;;;;5015538;28;47077;-80
2022/07/10 12:44:03;;;;;;;;;;;;;;;;;;4992675;28;43175;-80
2022/07/10 12:46:30;;;;;;;;;;;;;;;;;;5013975;28;46699;-80
2022/07/10 12:48:56;;;;;;;;;;;;;;;;;;5017937;28;44110;-79
2022/07/10 12:51:23;;;;;;;;;;;;;;;;;;5010243;28;49311;-80
2022/07/10 12:53:49;;;;;;;;;;;;;;;;;;5011918;28;45397;-79
2022/07/10 12:56:15;;;;;;;;;;;;;;;;;;5012440;28;42395;-80
2022/07/10 12:58:41;;;;;;;;;;;;;;;;;;5012256;28;47732;-80
2022/07/10 13:01:08;;;;;;;;;;;;;;;;;;5005973;28;46658;-79
2022/07/10 13:03:34;;;;;;;;;;;;;;;;;;5018292;28;45113;-79
2022/07/10 13:06:01;;;;;;;;;;;;;;;;;;5001953;28;45100;-79
2022/07/10 13:08:28;;;;;;;;;;;;;;;;;;4994822;28;48228;-80
2022/07/10 13:10:54;;;;;;;;;;;;;;;;;;4995355;28;45534;-80
2022/07/10 13:13:21;;;;;;;;;;;;;;;;;;5001188;28;44250;-80
2022/07/10 13:15:52;;;;;;;;;;;;;;;;;;5000903;28;44008;-80
2022/07/10 13:18:20;;;;;;;;;;;;;;;;;;4998377;28;45983;-80
2022/07/10 13:20:47;;;;;;;;;;;;;;;;;;4981911;28;47360;-79
2022/07/10 13:23:13;;;;;;;;;;;;;;;;;;5002406;28;42295;-79
2022/07/10 13:25:40;;;;;;;;;;;;;;;;;;4983947;28;44781;-79
2022/07/10 13:28:06;;;;;;;;;;;;;;;;;;5004638;28;48228;-79
2022/07/10 13:30:32;;;;;;;;;;;;;;;;;;5001404;28;46723;-79
2022/07/10 13:32:59;;;;;;;;;;;;;;;;;;5006196;28;45413;-78
2022/07/10 13:35:25;;;;;;;;;;;;;;;;;;4982023;28;41809;-79
2022/07/10 13:37:51;;;;;;;;;;;;;;;;;;4981334;28;43912;-79
2022/07/10 13:40:18;;;;;;;;;;;;;;;;;;5004839;28;45040;-79
2022/07/10 13:42:46;;;;;;;;;;;;;;;;;;5008177;28;42233;-78
2022/07/10 13:45:13;;;;;;;;;;;;;;;;;;5007711;28;45667;-79
2022/07/10 13:47:39;;;;;;;;;;;;;;;;;;5007003;28;48344;-79
2022/07/10 13:50:06;;;;;;;;;;;;;;;;;;5010427;28;43648;-79
2022/07/10 13:52:32;;;;;;;;;;;;;;;;;;5011758;28;46903;-79
2022/07/10 13:54:59;;;;;;;;;;;;;;;;;;5009886;28;44710;-78
2022/07/10 13:57:25;;;;;;;;;;;;;;;;;;5013973;28;45510;-78
2022/07/10 13:59:51;;;;;;;;;;;;;;;;;;5012834;28;45271;-79
2022/07/10 14:02:17;;;;;;;;;;;;;;;;;;5013820;28;43017;-79
2022/07/10 14:04:44;;;;;;;;;;;;;;;;;;5012356;28;46772;-79
2022/07/10 14:07:10;;;;;;;;;;;;;;;;;;5011532;28;45608;-78
2022/07/10 14:09:36;;;;;;;;;;;;;;;;;;5011543;28;44045;-79
2022/07/10 14:12:02;;;;;;;;;;;;;;;;;;5015889;28;44808;-79
2022/07/10 14:14:29;;;;;;;;;;;;;;;;;;5011847;28;41050;-79
2022/07/10 14:16:55;;;;;;;;;;;;;;;;;;5014148;28;44884;-79
2022/07/10 14:19:22;;;;;;;;;;;;;;;;;;5005264;28;46706;-79
2022/07/10 14:21:48;;;;;;;;;;;;;;;;;;5012031;28;43376;-79
2022/07/10 14:24:14;;;;;;;;;;;;;;;;;;5016198;28;44949;-79
2022/07/10 14:26:41;;;;;;;;;;;;;;;;;;5018251;28;46999;-79
2022/07/10 14:29:07;;;;;;;;;;;;;;;;;;5013606;28;42006;-79
2022/07/10 14:31:33;;;;;;;;;;;;;;;;;;5004223;28;47179;-79
2022/07/10 14:34:00;;;;;;;;;;;;;;;;;;5010022;28;45525;-78
2022/07/10 14:36:26;;;;;;;;;;;;;;;;;;5016686;28;47215;-79
2022/07/10 14:38:52;;;;;;;;;;;;;;;;;;5010834;28;44810;-79
2022/07/10 14:41:18;;;;;;;;;;;;;;;;;;5006235;28;43525;-79
2022/07/10 14:43:45;;;;;;;;;;;;;;;;;;5014977;28;45135;-79
2022/07/10 14:46:11;;;;;;;;;;;;;;;;;;5017499;28;44619;-79
2022/07/10 14:48:38;;;;;;;;;;;;;;;;;;5003304;28;45085;-79
2022/07/10 14:51:04;;;;;;;;;;;;;;;;;;5012121;28;44477;-79
2022/07/10 14:53:34;;;;;;;;;;;;;;;;;;5022216;28;48473;-79
2022/07/10 14:56:01;;;;;;;;;;;;;;;;;;5000408;28;43514;-79
2022/07/10 14:58:27;;;;;;;;;;;;;;;;;;5017095;28;45638;-79
2022/07/10 15:00:53;;;;;;;;;;;;;;;;;;4997395;28;41983;-79
2022/07/10 15:03:20;;;;;;;;;;;;;;;;;;5013279;28;46072;-79
2022/07/10 15:05:46;;;;;;;;;;;;;;;;;;5013268;28;46022;-79
2022/07/10 15:08:12;;;;;;;;;;;;;;;;;;5010529;28;48100;-79
2022/07/10 15:10:46;;;;;;;;;;;;;;;;;;5014273;28;49565;-79
2022/07/10 15:13:12;;;;;;;;;;;;;;;;;;5011100;28;46891;-79
2022/07/10 15:15:38;;;;;;;;;;;;;;;;;;5014479;28;44133;-79
2022/07/10 15:18:04;;;;;;;;;;;;;;;;;;5013629;28;47324;-80
2022/07/10 15:20:31;;;;;;;;;;;;;;;;;;5014057;28;45134;-79
2022/07/10 15:22:57;;;;;;;;;;;;;;;;;;5012063;28;48559;-80
2022/07/10 15:25:25;;;;;;;;;;;;;;;;;;5014413;28;45473;-79
2022/07/10 15:27:51;;;;;;;;;;;;;;;;;;5011663;28;42275;-78
2022/07/10 15:30:17;;;;;;;;;;;;;;;;;;5009860;28;45169;-79
2022/07/10 15:32:44;;;;;;;;;;;;;;;;;;5013079;28;48882;-79
2022/07/10 15:35:10;;;;;;;;;;;;;;;;;;5013834;28;42353;-79
2022/07/10 15:37:37;;;;;;;;;;;;;;;;;;5016290;28;44371;-79
2022/07/10 15:40:03;;;;;;;;;;;;;;;;;;5011833;28;45409;-79
2022/07/10 15:42:29;;;;;;;;;;;;;;;;;;5014711;28;45754;-78
2022/07/10 15:44:55;;;;;;;;;;;;;;;;;;5014890;28;48113;-79
2022/07/10 15:47:22;;;;;;;;;;;;;;;;;;5013596;28;42951;-80
2022/07/10 15:49:48;;;;;;;;;;;;;;;;;;4997183;28;46416;-79
2022/07/10 15:52:15;;;;;;;;;;;;;;;;;;5018181;28;48074;-79
2022/07/10 15:54:41;;;;;;;;;;;;;;;;;;5010369;28;44628;-79
2022/07/10 15:57:07;;;;;;;;;;;;;;;;;;5015174;28;46266;-78
2022/07/10 15:59:34;;;;;;;;;;;;;;;;;;5008605;28;48275;-79
2022/07/10 16:02:00;;;;;;;;;;;;;;;;;;5023504;28;47432;-79
2022/07/10 16:04:27;;;;;;;;;;;;;;;;;;5013850;28;45776;-79
2022/07/10 16:06:53;;;;;;;;;;;;;;;;;;5013474;28;44380;-79
2022/07/10 16:09:19;;;;;;;;;;;;;;;;;;5008477;28;49401;-76
2022/07/10 16:11:46;;;;;;;;;;;;;;;;;;5003132;28;47389;-79
2022/07/10 16:14:13;;;;;;;;;;;;;;;;;;5013883;28;42513;-79
2022/07/10 16:16:39;;;;;;;;;;;;;;;;;;5008659;28;46755;-80
2022/07/10 16:19:05;;;;;;;;;;;;;;;;;;5012356;28;45474;-79
2022/07/10 16:21:32;;;;;;;;;;;;;;;;;;5005965;28;46062;-79
2022/07/10 16:23:58;;;;;;;;;;;;;;;;;;4994688;28;47255;-79
2022/07/10 16:26:28;;;;;;;;;;;;;;;;;;4995870;28;45137;-78
2022/07/10 16:28:54;;;;;;;;;;;;;;;;;;5008458;28;47528;-80
2022/07/10 16:31:20;;;;;;;;;;;;;;;;;;4992491;28;47427;-80
2022/07/10 16:33:47;;;;;;;;;;;;;;;;;;5006028;28;44691;-80
2022/07/10 16:36:13;;;;;;;;;;;;;;;;;;4993546;28;47681;-81
2022/07/10 16:38:39;;;;;;;;;;;;;;;;;;4992214;28;48518;-80
2022/07/10 16:41:06;;;;;;;;;;;;;;;;;;5003000;28;43541;-85
2022/07/10 16:43:32;;;;;;;;;;;;;;;;;;5011133;28;45656;-83
2022/07/10 16:45:59;;;;;;;;;;;;;;;;;;5010327;28;43060;-81
2022/07/10 16:48:25;;;;;;;;;;;;;;;;;;5012106;28;46617;-81
2022/07/10 16:50:51;;;;;;;;;;;;;;;;;;4996307;28;46914;-80